Santa Gertrudes, Brazil

11:17 AM -03 on March 23, 2017 (GMT -0300)
Piracicaba / CMP 01 | | Change Station

Elev 1631 ft 22.71 °S, 47.67 °W | Updated 4 seconds ago

Partly Cloudy
Partly Cloudy
82.0 °F
Feels Like 82 °F
N
3.1
Wind Variable Wind from ESE
Gusts 5.4 mph

Today
High -- | Low -- °F
--% Chance of Precip.
Yesterday
High -- | Low -- °F
Precip. -- in
Pressure 30.12 in
Visibility -9999.0 miles
Clouds
Heat Index 82 °F
Dew Point 57 °F
Humidity 43%
Rainfall 0.00 in
Snow Depth Not available.
6:14 AM 6:17 PM
Waning Crescent, 23% visible
METAR SBYS 231300Z VRB02KT CAVOK 23/16 Q1020
Pressure 30.12 in
Visibility -9999.0 miles
Clouds
Heat Index 82 °F
Dew Point 57 °F
Humidity 43%
Rainfall 0.00 in
Snow Depth Not available.
6:14 AM 6:17 PM
Waning Crescent, 23% visible
METAR SBYS 231300Z VRB02KT CAVOK 23/16 Q1020

Get Severe Weather Alerts

Thanks for signing up!

Be on the lookout for a verification email in your inbox.

You'll start receiving the daily forecast at 8 AM.

×

10-Day Weather Forecast

No radar image for this location.
×

Almanac

Astronomy

Mar. 23, 2017 Rise Set
Actual Time
Civil Twilight
Nautical Twilight
Astronomical Twilight
Moon
Length of Visible Light
Length of Day
Tomorrow will be .
, % of the Moon is Illuminated

Today's Extremes

Country Highs Country Lows

Community

WunderPhotos

Upload Photos

1,962,540 photos uploaded!

WunderBlog® & News

Nearby

Air Quality

  Air Quality AQ Index Pollutant
Not available.

Snow Depth

Station Depth Elevation

Earthquake Activity

City Distance Mag. Time & Date
Minimum magnitude displayed is 2.5.

Earthquake Activity

City Distance Mag. Time & Date
Minimum magnitude displayed is 2.5.

Coastal Water Temperatures

Place Temperature

Stations

Nearby Weather Stations

Station Location Temp. Windchill Dew Point Humidity Wind Precip. Elev Updated Type